Time;durP1;ratioP1;P1;durP2;ratioP2;P2;SDS_P1;SDS_P2;PMS_P1;PMS_P2;Temp;Humidity;BMP_temperature;BMP_pressure;BME280_temperature;BME280_humidity;BME280_pressure;Samples;Min_cycle;Max_cycle;Signal;HPM_P1;HPM_P2
2023/03/15 00:01:13;;;;;;;1.00;0.90;;;;;;;8.35;100.00;97486.88;4485708;31;20108;-65
2023/03/15 00:03:42;;;;;;;1.40;1.12;;;;;;;8.32;100.00;97488.97;4485662;31;20092;-67
2023/03/15 00:06:10;;;;;;;3.37;1.30;;;;;;;8.37;100.00;97494.53;4485462;31;20163;-65
2023/03/15 00:08:38;;;;;;;1.42;0.85;;;;;;;8.31;100.00;97503.00;4484302;32;20126;-67
2023/03/15 00:11:06;;;;;;;1.52;0.93;;;;;;;8.24;100.00;97500.19;4485089;32;20157;-67
2023/03/15 00:13:33;;;;;;;1.10;1.00;;;;;;;8.29;100.00;97512.78;4485472;31;20442;-65
2023/03/15 00:16:04;;;;;;;1.08;0.82;;;;;;;8.29;100.00;97516.19;4485589;32;20188;-66
2023/03/15 00:18:31;;;;;;;1.95;0.93;;;;;;;8.36;100.00;97508.59;4485688;32;20104;-65
2023/03/15 00:20:59;;;;;;;2.00;1.00;;;;;;;8.29;100.00;97544.91;4485618;31;20092;-65
2023/03/15 00:23:26;;;;;;;1.45;0.82;;;;;;;8.25;100.00;97527.09;4485399;31;20135;-66
2023/03/15 00:25:54;;;;;;;1.23;1.02;;;;;;;8.26;100.00;97516.50;4485613;31;20111;-65
2023/03/15 00:28:21;;;;;;;1.10;0.80;;;;;;;8.24;100.00;97534.09;4485465;31;20148;-65
2023/03/15 00:31:02;;;;;;;0.73;0.60;;;;;;;8.25;100.00;97514.88;4485423;31;20119;-65
2023/03/15 00:33:33;;;;;;;0.98;0.73;;;;;;;8.19;100.00;97512.88;4485406;31;20093;-65
2023/03/15 00:36:05;;;;;;;1.42;0.90;;;;;;;8.21;100.00;97531.81;4485408;31;20092;-65
2023/03/15 00:38:34;;;;;;;1.23;0.70;;;;;;;8.22;100.00;97515.19;4485452;31;20084;-65
2023/03/15 00:41:06;;;;;;;1.23;0.90;;;;;;;8.17;100.00;97546.13;4485337;31;20146;-65
2023/03/15 00:43:33;;;;;;;1.15;1.00;;;;;;;8.16;100.00;97511.41;4485360;31;20084;-65
2023/03/15 00:46:01;;;;;;;0.88;0.73;;;;;;;8.15;100.00;97498.50;4485343;31;20520;-65
2023/03/15 00:48:28;;;;;;;1.20;0.70;;;;;;;8.12;100.00;97496.22;4485383;32;20146;-65
2023/03/15 00:51:08;;;;;;;2.53;1.00;;;;;;;8.11;100.00;97499.78;4485404;31;20458;-65
2023/03/15 00:53:38;;;;;;;1.50;0.90;;;;;;;8.06;100.00;97502.03;4485414;31;20084;-65
2023/03/15 00:56:09;;;;;;;1.08;0.98;;;;;;;7.97;100.00;97494.13;4485373;31;20092;-65
2023/03/15 00:58:37;;;;;;;0.73;0.70;;;;;;;8.02;100.00;97482.44;4485182;31;20100;-65
2023/03/15 01:01:15;;;;;;;1.70;0.93;;;;;;;7.99;100.00;97497.44;4485216;31;20525;-65
2023/03/15 01:03:43;;;;;;;1.42;0.95;;;;;;;7.90;100.00;97498.34;4485388;31;20108;-65
2023/03/15 01:06:22;;;;;;;1.75;1.10;;;;;;;7.90;100.00;97493.13;4485043;32;20449;-65
2023/03/15 01:08:50;;;;;;;2.47;0.98;;;;;;;7.86;100.00;97491.78;4485253;31;20084;-65
2023/03/15 01:11:21;;;;;;;1.35;1.05;;;;;;;7.86;100.00;97506.59;4485223;31;20088;-65
2023/03/15 01:13:48;;;;;;;1.42;1.17;;;;;;;7.88;100.00;97504.66;4485161;31;20469;-65
2023/03/15 01:16:15;;;;;;;3.97;0.95;;;;;;;7.86;100.00;97496.16;4485152;31;20157;-65
2023/03/15 01:18:43;;;;;;;1.37;0.90;;;;;;;7.83;100.00;97492.09;4485058;31;20541;-65
2023/03/15 01:21:12;;;;;;;0.98;0.80;;;;;;;7.81;100.00;97491.41;4484497;31;20176;-65
2023/03/15 01:23:40;;;;;;;2.65;1.52;;;;;;;7.74;100.00;97493.81;4484983;31;20127;-65
2023/03/15 01:26:10;;;;;;;0.70;0.65;;;;;;;7.71;100.00;97482.88;4484932;31;20139;-65
2023/03/15 01:28:37;;;;;;;1.12;0.73;;;;;;;7.63;100.00;97491.41;4485077;31;20092;-67
2023/03/15 01:31:05;;;;;;;1.00;0.90;;;;;;;7.63;100.00;97471.41;4470897;32;20097;-65
2023/03/15 01:33:32;;;;;;;1.60;0.95;;;;;;;7.61;100.00;97469.91;4485122;32;20114;-65
2023/03/15 01:36:02;;;;;;;1.65;0.80;;;;;;;7.63;100.00;97467.97;4485158;31;20098;-65
2023/03/15 01:38:30;;;;;;;1.17;0.80;;;;;;;7.63;100.00;97471.41;4484874;31;20096;-65
2023/03/15 01:40:58;;;;;;;1.37;0.82;;;;;;;7.64;100.00;97477.44;4485258;32;20097;-65
2023/03/15 01:43:27;;;;;;;1.10;0.77;;;;;;;7.57;100.00;97477.22;4484878;31;20104;-65
2023/03/15 01:46:00;;;;;;;1.73;0.80;;;;;;;7.57;100.00;97472.00;4485053;31;20111;-65
2023/03/15 01:48:31;;;;;;;;;;;;;;;7.55;100.00;97476.53;4485318;31;20084;-65
2023/03/15 01:51:02;;;;;;;0.90;0.57;;;;;;;7.52;100.00;97474.22;4485082;32;19984;-65
2023/03/15 01:53:31;;;;;;;1.58;1.02;;;;;;;7.52;100.00;97461.19;4484840;31;20172;-65
2023/03/15 01:56:00;;;;;;;1.05;0.88;;;;;;;7.49;100.00;97474.53;4483759;32;20131;-65
2023/03/15 01:58:28;;;;;;;1.02;0.90;;;;;;;7.46;100.00;97485.25;4485004;31;20103;-65
2023/03/15 02:00:56;;;;;;;2.65;0.90;;;;;;;7.46;100.00;97475.66;4470832;32;20111;-65
2023/03/15 02:03:27;;;;;;;1.30;0.98;;;;;;;7.40;100.00;97493.66;4484981;32;20118;-65
2023/03/15 02:06:02;;;;;;;1.92;1.05;;;;;;;7.39;100.00;97497.25;4484636;31;20100;-65
2023/03/15 02:08:38;;;;;;;1.20;1.10;;;;;;;7.34;100.00;97491.66;4483597;32;20080;-65
2023/03/15 02:11:06;;;;;;;1.58;1.02;;;;;;;7.38;100.00;97480.78;4483217;32;20393;-65
2023/03/15 02:13:34;;;;;;;5.10;0.88;;;;;;;7.37;100.00;97491.34;4484670;31;20171;-65
2023/03/15 02:16:05;;;;;;;3.08;1.15;;;;;;;7.34;100.00;97489.03;4484730;32;20197;-65
2023/03/15 02:18:36;;;;;;;1.12;0.90;;;;;;;7.25;100.00;97501.16;4484582;32;20084;-65
2023/03/15 02:21:21;;;;;;;1.50;0.93;;;;;;;7.24;100.00;97500.34;4484370;31;20161;-65
2023/03/15 02:24:17;;;;;;;1.02;0.65;;;;;;;7.31;100.00;97495.38;4484636;31;20093;-65
2023/03/15 02:26:50;;;;;;;2.10;1.23;;;;;;;7.28;100.00;97488.69;4435036;32;20507;-65
2023/03/15 02:29:18;;;;;;;1.98;0.93;;;;;;;7.25;100.00;97522.84;4422885;32;20489;-65
2023/03/15 02:31:46;;;;;;;1.40;0.80;;;;;;;7.26;100.00;97501.00;4422555;32;21056;-65
2023/03/15 02:34:13;;;;;;;1.40;1.00;;;;;;;7.25;100.00;97511.59;4436627;32;20093;-65
2023/03/15 02:36:41;;;;;;;2.55;1.30;;;;;;;7.24;100.00;97489.94;4436950;32;20168;-65
2023/03/15 02:39:16;;;;;;;1.40;1.00;;;;;;;7.20;100.00;97485.97;4437186;32;20073;-65
2023/03/15 02:41:48;;;;;;;4.60;1.17;;;;;;;7.23;100.00;97497.91;4437124;32;20121;-65
2023/03/15 02:44:16;;;;;;;1.40;1.10;;;;;;;7.23;100.00;97500.50;4424381;32;20431;-65
2023/03/15 02:46:45;;;;;;;1.20;0.90;;;;;;;7.25;100.00;97507.22;4424130;32;20133;-65
2023/03/15 02:49:15;;;;;;;2.80;1.20;;;;;;;7.18;100.00;97500.13;4424157;32;20105;-65
2023/03/15 02:51:43;;;;;;;1.73;1.10;;;;;;;7.17;100.00;97507.13;4436886;32;20165;-65
2023/03/15 02:54:10;;;;;;;1.62;1.20;;;;;;;7.16;100.00;97502.06;4437396;32;20140;-65
2023/03/15 02:56:37;;;;;;;3.87;0.90;;;;;;;7.13;100.00;97503.19;4436942;32;20101;-65
2023/03/15 02:59:04;;;;;;;2.35;1.00;;;;;;;7.08;100.00;97501.00;4437249;32;20085;-65
2023/03/15 03:01:35;;;;;;;1.30;1.15;;;;;;;7.07;100.00;97511.56;4437204;32;20180;-65
2023/03/15 03:04:03;;;;;;;2.83;1.37;;;;;;;7.08;100.00;97521.81;4464251;32;20100;-65
2023/03/15 03:06:30;;;;;;;1.52;0.90;;;;;;;7.07;100.00;97516.75;4485879;32;20114;-65
2023/03/15 03:08:58;;;;;;;2.35;0.93;;;;;;;7.06;100.00;97522.97;4486102;31;20497;-65
2023/03/15 03:11:26;;;;;;;2.35;1.52;;;;;;;7.11;100.00;97515.50;4486317;32;20570;-65
2023/03/15 03:13:54;;;;;;;1.92;1.25;;;;;;;7.06;100.00;97521.16;4486209;31;20138;-65
2023/03/15 03:16:22;;;;;;;1.87;1.50;;;;;;;7.09;100.00;97535.69;4486286;31;20100;-65
2023/03/15 03:18:50;;;;;;;2.25;1.40;;;;;;;7.04;100.00;97514.44;4486060;31;20460;-65
2023/03/15 03:21:18;;;;;;;2.78;1.75;;;;;;;7.06;100.00;97515.16;4486226;31;20453;-65
2023/03/15 03:23:45;;;;;;;2.22;1.33;;;;;;;6.97;100.00;97516.03;4485913;31;20462;-65
2023/03/15 03:26:15;;;;;;;2.50;1.37;;;;;;;7.00;100.00;97515.72;4486222;32;20127;-65
2023/03/15 03:28:47;;;;;;;1.87;1.27;;;;;;;6.91;100.00;97497.38;4486125;31;20140;-65
2023/03/15 03:31:18;;;;;;;2.67;1.37;;;;;;;6.95;100.00;97508.34;4485939;31;20085;-65
2023/03/15 03:33:46;;;;;;;1.60;1.10;;;;;;;7.01;100.00;97496.50;4486126;31;20100;-65
2023/03/15 03:36:14;;;;;;;1.55;1.37;;;;;;;7.00;100.00;97500.09;4486145;31;20088;-65
2023/03/15 03:38:42;;;;;;;1.55;0.90;;;;;;;6.96;100.00;97504.75;4485807;31;20097;-65
2023/03/15 03:41:11;;;;;;;1.25;0.90;;;;;;;6.99;100.00;97503.66;4485962;31;20100;-65
2023/03/15 03:43:39;;;;;;;1.37;1.27;;;;;;;6.91;100.00;97501.78;4485826;31;20367;-65
2023/03/15 03:46:06;;;;;;;1.50;1.20;;;;;;;6.88;100.00;97502.09;4485591;31;20104;-65
2023/03/15 03:48:34;;;;;;;1.25;1.10;;;;;;;6.85;100.00;97490.16;4485902;31;20093;-65
2023/03/15 03:51:01;;;;;;;1.52;1.33;;;;;;;6.85;100.00;97503.19;4486156;31;20112;-65
2023/03/15 03:53:29;;;;;;;1.98;1.27;;;;;;;6.83;100.00;97505.12;4485908;31;20123;-65
2023/03/15 03:55:56;;;;;;;1.15;1.02;;;;;;;6.76;100.00;97506.66;4486075;31;20139;-65
2023/03/15 03:58:23;;;;;;;1.45;1.17;;;;;;;6.73;100.00;97489.53;4485702;31;20143;-65
2023/03/15 04:00:55;;;;;;;1.67;1.17;;;;;;;6.70;100.00;97494.22;4485754;31;20503;-65
2023/03/15 04:03:26;;;;;;;1.52;1.23;;;;;;;6.65;100.00;97491.25;4484624;32;20175;-65
2023/03/15 04:05:54;;;;;;;1.62;1.25;;;;;;;6.60;100.00;97509.88;4485769;32;20122;-65
2023/03/15 04:08:23;;;;;;;2.72;0.90;;;;;;;6.60;100.00;97522.06;4485551;31;20167;-65
2023/03/15 04:10:56;;;;;;;1.10;0.88;;;;;;;6.60;100.00;97535.91;4485905;31;20089;-65
2023/03/15 04:13:24;;;;;;;1.30;1.00;;;;;;;6.54;100.00;97526.88;4485639;32;20095;-65
2023/03/15 04:15:56;;;;;;;1.90;0.98;;;;;;;6.47;100.00;97535.41;4485844;32;20108;-65
2023/03/15 04:18:25;;;;;;;0.68;0.60;;;;;;;6.35;100.00;97542.53;4485829;31;20080;-65
2023/03/15 04:20:53;;;;;;;1.55;0.70;;;;;;;6.23;100.00;97534.06;4485712;32;20164;-65
2023/03/15 04:23:22;;;;;;;0.88;0.82;;;;;;;6.20;100.00;97532.56;4485613;31;20108;-65
2023/03/15 04:25:51;;;;;;;1.02;0.82;;;;;;;6.09;100.00;97552.72;4485850;31;20145;-65
2023/03/15 04:28:21;;;;;;;0.82;0.55;;;;;;;5.99;100.00;97540.53;4485564;31;20092;-65
2023/03/15 04:30:49;;;;;;;0.73;0.60;;;;;;;5.96;100.00;97550.38;4485750;31;20096;-65
2023/03/15 04:33:18;;;;;;;1.20;0.60;;;;;;;5.85;100.00;97551.34;4485369;32;20100;-65
2023/03/15 04:35:45;;;;;;;0.68;0.60;;;;;;;5.77;100.00;97554.63;4485771;31;20168;-65
2023/03/15 04:38:14;;;;;;;0.85;0.47;;;;;;;5.68;100.00;97573.62;4483985;32;20104;-65
2023/03/15 04:40:42;;;;;;;1.52;0.77;;;;;;;5.67;100.00;97574.59;4485438;31;20157;-65
2023/03/15 04:43:10;;;;;;;1.12;0.68;;;;;;;5.62;100.00;97561.19;4483986;32;20100;-65
2023/03/15 04:45:37;;;;;;;0.90;0.65;;;;;;;5.59;100.00;97571.84;4485463;31;20171;-65
2023/03/15 04:48:05;;;;;;;0.90;0.68;;;;;;;5.51;100.00;97581.12;4485263;32;20560;-65
2023/03/15 04:50:34;;;;;;;2.25;0.88;;;;;;;5.45;100.00;97578.22;4485474;31;20159;-67
2023/03/15 04:53:02;;;;;;;1.10;0.68;;;;;;;5.36;100.00;97579.88;4485259;32;20160;-65
2023/03/15 04:55:32;;;;;;;1.00;0.57;;;;;;;5.40;100.00;97593.41;4485574;31;20122;-65
2023/03/15 04:58:02;;;;;;;1.00;0.70;;;;;;;5.36;100.00;97592.87;4484696;31;20080;-65
2023/03/15 05:00:30;;;;;;;1.10;0.70;;;;;;;5.29;100.00;97602.13;4485510;31;20164;-65
2023/03/15 05:02:58;;;;;;;1.85;1.17;;;;;;;5.26;100.00;97598.03;4485595;31;20105;-65
2023/03/15 05:05:28;;;;;;;1.50;0.73;;;;;;;5.19;100.00;97596.09;4485008;31;20171;-65
2023/03/15 05:07:55;;;;;;;1.08;0.85;;;;;;;5.23;100.00;97593.09;4484349;32;20118;-65
2023/03/15 05:10:24;;;;;;;0.80;0.77;;;;;;;5.15;100.00;97598.94;4485223;31;20775;-65
2023/03/15 05:12:51;;;;;;;2.05;0.73;;;;;;;5.15;100.00;97606.72;4485000;31;20088;-65
2023/03/15 05:15:19;;;;;;;2.00;0.80;;;;;;;5.09;100.00;97602.06;4485297;32;20096;-65
2023/03/15 05:17:47;;;;;;;0.80;0.57;;;;;;;5.11;100.00;97594.97;4485138;31;20108;-65
2023/03/15 05:20:15;;;;;;;0.98;0.65;;;;;;;4.94;100.00;97596.41;4484995;31;20524;-65
2023/03/15 05:22:43;;;;;;;1.65;1.12;;;;;;;4.93;100.00;97599.94;4485136;31;20258;-65
2023/03/15 05:25:11;;;;;;;2.22;1.37;;;;;;;4.87;100.00;97592.69;4485121;31;20100;-65
2023/03/15 05:27:38;;;;;;;1.48;1.05;;;;;;;4.76;100.00;97593.59;4485363;31;20167;-65
2023/03/15 05:30:07;;;;;;;1.92;0.82;;;;;;;4.78;100.00;97581.34;4485304;31;20096;-65
2023/03/15 05:32:38;;;;;;;1.83;1.02;;;;;;;4.66;100.00;97579.75;4485396;31;20617;-65
2023/03/15 05:35:09;;;;;;;1.50;1.27;;;;;;;4.61;100.00;97572.34;4485152;31;20151;-65
2023/03/15 05:37:39;;;;;;;1.67;1.23;;;;;;;4.55;100.00;97575.47;4485253;31;20097;-65
2023/03/15 05:40:07;;;;;;;3.03;1.60;;;;;;;4.51;100.00;97581.88;4484882;31;20091;-65
2023/03/15 05:42:35;;;;;;;3.65;1.40;;;;;;;4.43;100.00;97569.53;4483860;32;20133;-67
2023/03/15 05:45:04;;;;;;;2.55;2.08;;;;;;;4.38;100.00;97553.53;4485119;32;20115;-65
2023/03/15 05:47:33;;;;;;;4.15;2.42;;;;;;;4.37;100.00;97570.03;4485184;31;20153;-65
2023/03/15 05:50:01;;;;;;;3.08;1.37;;;;;;;4.34;100.00;97574.69;4484841;31;20104;-65
2023/03/15 05:52:29;;;;;;;3.35;1.90;;;;;;;4.34;100.00;97572.09;4485025;31;20092;-65
2023/03/15 05:54:56;;;;;;;3.33;1.73;;;;;;;4.23;100.00;97567.78;4484760;31;20159;-65
2023/03/15 05:57:26;;;;;;;4.10;2.05;;;;;;;4.29;100.00;97576.84;4485113;31;20100;-65
2023/03/15 05:59:53;;;;;;;3.25;1.77;;;;;;;4.20;100.00;97599.97;4484535;31;20540;-65
2023/03/15 06:02:21;;;;;;;2.62;1.98;;;;;;;4.22;100.00;97572.16;4484764;31;20137;-65
2023/03/15 06:04:49;;;;;;;2.10;1.52;;;;;;;4.22;100.00;97572.16;4483351;32;20089;-65
2023/03/15 06:07:17;;;;;;;3.35;2.40;;;;;;;4.21;100.00;97578.28;4484497;31;20168;-65
2023/03/15 06:09:45;;;;;;;3.50;2.12;;;;;;;4.21;100.00;97562.72;4484419;31;20805;-65
2023/03/15 06:12:12;;;;;;;3.37;2.87;;;;;;;4.19;100.00;97585.34;4484728;31;20088;-65
2023/03/15 06:14:40;;;;;;;4.78;2.62;;;;;;;4.15;100.00;97578.78;4484572;31;20092;-66
2023/03/15 06:17:07;;;;;;;3.08;2.12;;;;;;;4.16;100.00;97561.47;4484483;31;20096;-65
2023/03/15 06:19:36;;;;;;;3.83;2.53;;;;;;;4.23;100.00;97578.97;4484455;31;20093;-66
2023/03/15 06:22:04;;;;;;;5.15;2.50;;;;;;;4.21;100.00;97569.66;4484642;31;20171;-65
2023/03/15 06:24:31;;;;;;;5.75;3.00;;;;;;;4.25;100.00;97592.66;4484552;32;20126;-65
2023/03/15 06:26:59;;;;;;;3.15;1.75;;;;;;;4.21;100.00;97574.84;4484553;31;20085;-65
2023/03/15 06:29:26;;;;;;;4.10;2.83;;;;;;;4.31;100.00;97580.94;4484608;31;20092;-65
2023/03/15 06:31:56;;;;;;;5.45;3.22;;;;;;;4.30;100.00;97568.09;4484230;31;20104;-65
2023/03/15 06:34:24;;;;;;;3.03;2.10;;;;;;;4.29;100.00;97572.47;4484319;32;20088;-65
2023/03/15 06:36:51;;;;;;;3.47;2.30;;;;;;;4.38;100.00;97570.88;4482922;32;20149;-65
2023/03/15 06:39:19;;;;;;;4.53;2.45;;;;;;;4.38;100.00;97592.44;4484021;32;20112;-65
2023/03/15 06:41:46;;;;;;;6.40;2.47;;;;;;;4.46;100.00;97580.62;4484353;31;20130;-65
2023/03/15 06:44:14;;;;;;;6.47;2.30;;;;;;;4.50;100.00;97584.59;4482958;32;20495;-65
2023/03/15 06:46:42;;;;;;;4.78;2.15;;;;;;;4.52;100.00;97572.31;4484294;31;20159;-65
2023/03/15 06:49:10;;;;;;;5.72;2.67;;;;;;;4.51;100.00;97592.25;4484174;31;20581;-65
2023/03/15 06:51:38;;;;;;;4.40;2.65;;;;;;;4.60;100.00;97601.03;4482928;32;20127;-65
2023/03/15 06:54:05;;;;;;;4.22;2.25;;;;;;;4.55;100.00;97601.41;4484294;31;20147;-65
2023/03/15 06:56:36;;;;;;;5.25;3.10;;;;;;;4.61;100.00;97603.47;4482608;32;20085;-65
2023/03/15 06:59:03;;;;;;;5.03;2.62;;;;;;;4.57;100.00;97588.31;4484293;31;20104;-65
2023/03/15 07:01:30;;;;;;;3.45;2.10;;;;;;;4.57;100.00;97622.03;4484026;32;20489;-65
2023/03/15 07:03:58;;;;;;;5.95;2.83;;;;;;;4.59;100.00;97614.97;4483861;31;20092;-65
2023/03/15 07:06:27;;;;;;;6.07;2.55;;;;;;;4.58;100.00;97597.75;4483553;32;20142;-65
2023/03/15 07:08:54;;;;;;;9.60;3.65;;;;;;;4.58;100.00;97636.66;4483656;32;20100;-65
2023/03/15 07:11:21;;;;;;;5.30;2.45;;;;;;;4.59;100.00;97612.38;4483892;31;20137;-65
2023/03/15 07:13:49;;;;;;;4.82;2.70;;;;;;;4.65;100.00;97627.41;4483475;31;20100;-65
2023/03/15 07:16:18;;;;;;;4.68;2.12;;;;;;;4.65;100.00;97642.97;4483604;31;20096;-65
2023/03/15 07:18:46;;;;;;;4.82;2.53;;;;;;;4.59;100.00;97635.72;4483484;32;20091;-65
2023/03/15 07:21:13;;;;;;;3.65;2.17;;;;;;;4.58;100.00;97624.50;4485411;31;20567;-65
2023/03/15 07:23:40;;;;;;;4.43;2.10;;;;;;;4.52;100.00;97637.16;4485873;31;20088;-65
2023/03/15 07:26:08;;;;;;;4.62;2.40;;;;;;;4.53;100.00;97623.25;4485746;31;20139;-65
2023/03/15 07:28:35;;;;;;;4.95;2.72;;;;;;;4.53;100.00;97642.22;4485841;31;20767;-65
2023/03/15 07:31:04;;;;;;;4.25;1.73;;;;;;;4.57;100.00;97656.59;4485857;31;20107;-65
2023/03/15 07:33:32;;;;;;;5.18;2.10;;;;;;;4.59;100.00;97646.91;4485870;32;20098;-65
2023/03/15 07:36:02;;;;;;;5.03;2.83;;;;;;;4.65;100.00;97640.38;4485863;31;20084;-65
2023/03/15 07:38:30;;;;;;;3.78;2.12;;;;;;;4.66;100.00;97634.22;4485927;32;20138;-67
2023/03/15 07:41:00;;;;;;;7.95;2.60;;;;;;;4.61;100.00;97668.34;4485697;31;20100;-65
2023/03/15 07:43:28;;;;;;;7.07;3.37;;;;;;;4.67;100.00;97642.84;4485734;31;20097;-65
2023/03/15 07:45:57;;;;;;;4.82;2.78;;;;;;;4.59;100.00;97653.87;4485821;31;20104;-65
2023/03/15 07:48:25;;;;;;;4.82;2.67;;;;;;;4.63;100.00;97668.19;4485752;31;20096;-65
2023/03/15 07:50:52;;;;;;;6.82;2.90;;;;;;;4.63;100.00;97678.56;4485658;32;20431;-65
2023/03/15 07:53:19;;;;;;;6.15;3.20;;;;;;;4.63;100.00;97668.19;4485593;32;20160;-65
2023/03/15 07:55:47;;;;;;;5.75;2.72;;;;;;;4.74;100.00;97683.72;4485745;31;20544;-65
2023/03/15 07:58:14;;;;;;;8.45;3.58;;;;;;;4.70;100.00;97700.47;4485623;32;20096;-65
2023/03/15 08:00:42;;;;;;;6.43;2.92;;;;;;;4.59;100.00;97703.97;4485814;32;20123;-65
2023/03/15 08:03:10;;;;;;;5.10;2.60;;;;;;;4.77;100.00;97706.81;4485522;31;20569;-65
2023/03/15 08:05:37;;;;;;;5.60;2.80;;;;;;;4.78;100.00;97708.47;4485354;32;20085;-65
2023/03/15 08:08:05;;;;;;;6.03;2.92;;;;;;;4.83;100.00;97700.31;4485668;31;20093;-65
2023/03/15 08:10:32;;;;;;;8.20;3.22;;;;;;;4.87;100.00;97716.44;4485415;31;20597;-66
2023/03/15 08:12:59;;;;;;;5.32;3.15;;;;;;;4.89;100.00;97717.13;4485701;31;20097;-65
2023/03/15 08:15:26;;;;;;;5.87;3.22;;;;;;;4.85;100.00;97718.34;4485606;31;20080;-65
2023/03/15 08:17:54;;;;;;;5.10;2.60;;;;;;;4.69;100.00;97719.56;4485544;31;20168;-65
2023/03/15 08:20:21;;;;;;;7.10;3.17;;;;;;;4.95;100.00;97721.78;4485563;32;20080;-65
2023/03/15 08:22:49;;;;;;;4.35;2.70;;;;;;;4.98;100.00;97718.94;4485434;31;20118;-65
2023/03/15 08:25:19;;;;;;;5.43;2.65;;;;;;;4.78;100.00;97713.66;4485858;31;20076;-65
2023/03/15 08:27:47;;;;;;;6.10;2.20;;;;;;;4.82;100.00;97732.38;4485506;31;20084;-65
2023/03/15 08:30:16;;;;;;;7.10;2.72;;;;;;;4.96;100.00;97741.62;4485537;31;20096;-65
2023/03/15 08:32:45;;;;;;;5.12;2.97;;;;;;;4.83;100.00;97733.19;4485348;32;20438;-65
2023/03/15 08:35:14;;;;;;;5.60;2.20;;;;;;;4.83;100.00;97756.53;4485570;31;20084;-65
2023/03/15 08:37:46;;;;;;;6.20;2.67;;;;;;;4.83;100.00;97754.78;4485419;32;20096;-65
2023/03/15 08:40:22;;;;;;;6.03;2.72;;;;;;;4.89;100.00;97750.84;4485386;31;20373;-65
2023/03/15 08:42:50;;;;;;;5.45;2.53;;;;;;;4.70;100.00;97760.16;4485514;31;20530;-65
2023/03/15 08:45:18;;;;;;;10.00;3.12;;;;;;;4.79;100.00;97761.19;4485708;31;20092;-65
2023/03/15 08:47:45;;;;;;;3.58;2.00;;;;;;;4.72;100.00;97765.22;4485283;32;20096;-65
2023/03/15 08:50:14;;;;;;;9.75;3.22;;;;;;;4.79;100.00;97777.56;4485326;31;20160;-65
2023/03/15 08:52:42;;;;;;;5.95;2.60;;;;;;;4.77;100.00;97776.06;4485198;31;20088;-65
2023/03/15 08:55:09;;;;;;;5.37;2.12;;;;;;;4.79;100.00;97776.75;4485340;31;20153;-65
2023/03/15 08:57:37;;;;;;;5.70;2.40;;;;;;;4.70;100.00;97801.66;4485263;32;20095;-65
2023/03/15 09:00:07;;;;;;;4.95;2.17;;;;;;;4.80;100.00;97794.78;4485342;31;20100;-65
2023/03/15 09:02:35;;;;;;;7.72;2.00;;;;;;;4.73;100.00;97798.81;4485271;31;20115;-65
2023/03/15 09:05:05;;;;;;;2.92;1.92;;;;;;;4.75;100.00;97809.06;4485278;31;20097;-65
2023/03/15 09:07:33;;;;;;;3.55;2.10;;;;;;;4.67;100.00;97825.25;4485194;31;20081;-65
2023/03/15 09:10:00;;;;;;;7.78;2.50;;;;;;;4.78;100.00;97812.25;4485263;31;20539;-65
2023/03/15 09:12:31;;;;;;;8.63;2.10;;;;;;;4.76;100.00;97814.13;4485050;31;20088;-65
2023/03/15 09:14:58;;;;;;;5.45;2.30;;;;;;;4.67;100.00;97803.69;4485278;31;20484;-65
2023/03/15 09:17:26;;;;;;;6.07;2.55;;;;;;;4.75;100.00;97812.50;4483795;32;20100;-65
2023/03/15 09:19:53;;;;;;;5.00;2.30;;;;;;;4.72;100.00;97819.69;4485345;31;20156;-65
2023/03/15 09:22:21;;;;;;;7.40;2.85;;;;;;;4.60;100.00;97804.19;4485315;31;20088;-65
2023/03/15 09:25:05;;;;;;;2.58;1.75;;;;;;;4.64;100.00;97828.09;4485262;31;20068;-65
2023/03/15 09:27:33;;;;;;;8.23;2.47;;;;;;;4.80;100.00;97818.12;4485083;31;20446;-65
2023/03/15 09:30:00;;;;;;;5.30;2.05;;;;;;;4.71;100.00;97836.19;4483902;32;20171;-65
2023/03/15 09:32:27;;;;;;;5.65;2.25;;;;;;;4.72;99.05;97832.66;4483959;32;20583;-65
2023/03/15 09:34:55;;;;;;;4.90;2.08;;;;;;;4.87;98.35;97841.00;4485082;32;20156;-65
2023/03/15 09:37:22;;;;;;;7.55;1.90;;;;;;;4.98;97.66;97838.34;4485043;31;20192;-65
2023/03/15 09:39:49;;;;;;;3.85;2.20;;;;;;;5.01;96.57;97848.50;4485026;31;20091;-66
2023/03/15 09:42:27;;;;;;;4.93;1.92;;;;;;;5.09;96.18;97855.66;4484215;31;20461;-65
2023/03/15 09:45:12;;;;;;;8.63;2.33;;;;;;;5.05;96.00;97854.25;4483958;32;20108;-65
2023/03/15 09:47:49;;;;;;;6.65;1.85;;;;;;;5.22;94.66;97856.28;4483501;32;20119;-66
2023/03/15 09:50:23;;;;;;;5.82;2.08;;;;;;;5.24;94.21;97849.19;4484705;31;20151;-66
2023/03/15 09:52:56;;;;;;;3.10;2.22;;;;;;;5.29;94.12;97847.03;4483870;32;20171;-65
2023/03/15 09:55:27;;;;;;;10.63;2.45;;;;;;;5.55;93.85;97840.66;4484773;31;20069;-65
2023/03/15 09:58:04;;;;;;;8.80;2.37;;;;;;;5.35;93.17;97845.72;4485057;31;20845;-65
2023/03/15 10:01:18;;;;;;;5.78;2.10;;;;;;;5.30;93.35;97853.06;4485114;31;20543;-65
2023/03/15 10:03:48;;;;;;;4.55;2.42;;;;;;;5.22;93.18;97852.88;4482930;32;20457;-65
2023/03/15 10:06:35;;;;;;;5.93;2.30;;;;;;;5.42;91.75;97854.66;4483304;32;20100;-65
2023/03/15 10:09:21;;;;;;;3.95;1.98;;;;;;;5.33;91.99;97868.41;4483134;32;20123;-65
2023/03/15 10:12:20;;;;;;;5.30;1.87;;;;;;;5.33;91.94;97865.81;4484611;31;20455;-65
2023/03/15 10:15:11;;;;;;;8.30;2.28;;;;;;;5.38;91.80;97852.44;4483360;32;20084;-65
2023/03/15 10:17:58;;;;;;;3.58;1.60;;;;;;;5.26;90.16;97872.44;4484668;31;20076;-65
2023/03/15 10:20:34;;;;;;;6.20;2.55;;;;;;;5.25;89.44;97876.78;4484354;31;20118;-65
2023/03/15 10:23:05;;;;;;;3.85;2.00;;;;;;;5.36;89.72;97875.94;4483283;32;20100;-65
2023/03/15 10:25:33;;;;;;;4.25;1.90;;;;;;;5.32;87.53;97869.34;4484477;31;20362;-65
2023/03/15 10:28:28;;;;;;;5.00;2.10;;;;;;;5.41;86.69;97870.38;4484274;32;20176;-65
2023/03/15 10:31:01;;;;;;;8.15;2.10;;;;;;;5.38;87.00;97889.63;4484562;32;20546;-65
2023/03/15 10:33:36;;;;;;;4.32;2.00;;;;;;;5.41;86.83;97891.97;4483132;32;20119;-65
2023/03/15 10:36:17;;;;;;;4.82;2.22;;;;;;;5.24;86.38;97895.94;4484348;31;20105;-65
2023/03/15 10:38:45;;;;;;;6.18;2.37;;;;;;;5.40;85.23;97898.09;4484311;31;20097;-65
2023/03/15 10:41:27;;;;;;;6.12;2.03;;;;;;;5.43;85.65;97884.84;4484245;32;20143;-65
2023/03/15 10:43:59;;;;;;;6.75;2.22;;;;;;;5.54;83.76;97912.56;4484113;32;20152;-65
2023/03/15 10:46:26;;;;;;;5.18;2.00;;;;;;;5.42;83.61;97904.00;4484451;31;20159;-65
2023/03/15 10:48:58;;;;;;;5.43;1.98;;;;;;;5.61;84.42;97908.50;4482411;32;20197;-66
2023/03/15 10:51:31;;;;;;;9.05;2.78;;;;;;;5.56;83.58;97902.06;4482317;31;20282;-65
2023/03/15 10:54:10;;;;;;;5.57;2.67;;;;;;;5.76;83.58;97911.59;4481453;32;20112;-66
2023/03/15 10:56:50;;;;;;;4.28;2.03;;;;;;;5.65;82.45;97899.50;4484969;31;20085;-65
2023/03/15 10:59:23;;;;;;;8.18;2.03;;;;;;;5.67;81.71;97917.56;4486078;31;20077;-65
2023/03/15 11:02:12;;;;;;;4.80;2.10;;;;;;;5.80;80.63;97923.41;4486134;31;20100;-65
2023/03/15 11:04:41;;;;;;;4.18;2.55;;;;;;;5.72;79.71;97910.19;4485980;32;20151;-65
2023/03/15 11:07:09;;;;;;;10.40;2.80;;;;;;;5.79;79.82;97911.34;4485827;31;20104;-66
2023/03/15 11:09:42;;;;;;;3.95;2.20;;;;;;;5.84;79.20;97906.59;4484744;32;20097;-65
2023/03/15 11:12:30;;;;;;;4.03;1.70;;;;;;;5.85;78.30;97910.00;4486117;31;20472;-65
2023/03/15 11:15:03;;;;;;;8.55;1.95;;;;;;;5.72;76.55;97920.59;4486041;31;20108;-65
2023/03/15 11:17:34;;;;;;;4.47;2.00;;;;;;;5.60;76.99;97922.47;4484849;32;20093;-65
2023/03/15 11:20:12;;;;;;;9.77;1.98;;;;;;;5.76;76.12;97923.78;4485873;31;20076;-65
2023/03/15 11:22:39;;;;;;;5.45;2.20;;;;;;;5.90;76.30;97928.63;4484850;32;20155;-65
2023/03/15 11:25:14;;;;;;;6.90;1.98;;;;;;;5.82;76.21;97931.88;4486002;31;20407;-65
2023/03/15 11:27:43;;;;;;;5.03;2.40;;;;;;;5.70;76.18;97938.09;4485773;31;20084;-65
2023/03/15 11:30:14;;;;;;;5.05;1.80;;;;;;;5.77;75.89;97931.44;4484645;32;20438;-65
2023/03/15 11:32:43;;;;;;;7.60;1.92;;;;;;;5.81;75.08;97935.44;4486002;32;20153;-65
2023/03/15 11:35:16;;;;;;;7.87;2.37;;;;;;;5.91;73.77;97945.06;4471851;32;20397;-65
2023/03/15 11:37:53;;;;;;;5.80;2.20;;;;;;;5.79;73.51;97931.31;4485943;31;20662;-65
2023/03/15 11:40:32;;;;;;;4.43;1.95;;;;;;;5.85;73.84;97936.81;4484573;32;20137;-65
2023/03/15 11:43:03;;;;;;;9.27;2.55;;;;;;;5.98;73.50;97934.06;4484613;32;20480;-65
2023/03/15 11:45:49;;;;;;;4.37;2.33;;;;;;;6.17;73.38;97930.72;4484546;32;20099;-66
2023/03/15 11:48:39;;;;;;;4.32;1.90;;;;;;;6.38;71.62;97927.25;4486134;31;20144;-66